Guangzhou, Guangdong

6:32 PM CST on August 01, 2014 (GMT +0800)
Baiyun (ZGGG) Elev 49 ft | 23.40 °N, 113.30 °E | Change Station

Current weather conditions updated 32 minutes ago

Mostly Cloudy
Mostly Cloudy
91 °F
Feels Like 98 °F
N
9
Wind Variable Wind from WNW

Tomorrow is forecast to be Much Cooler than today. Thunderstorms.

Today
High -- | Low -- °F
--% Chance of Precip.
Yesterday
High -- | Low -- °F
Precip. -- in
5:57 AM 7:09 PM
Waxing Crescent, 25% visible
Pressure 29.44 in
Visibility 6.2 miles
Clouds Mostly Cloudy 5000 ft
Heat Index 98 °F
Dew Point 72 °F
Humidity 52%
Rainfall 0.00 in
Snow Depth Not available.
UV 1 out of 12
Pollen Not available.
Air Quality Not available.
Flu Activity Not available.
METAR ZGGG 011000Z 30004MPS 250V360 9999 BKN050 33/22 Q0997 NOSIG

More Conditions Fewer Conditions

Pressure 29.44 in
Visibility 6.2 miles
Clouds Mostly Cloudy 5000 ft
Heat Index 98 °F
Dew Point 72 °F
Humidity 52%
Rainfall 0.00 in
Snow Depth Not available.
UV 1 out of 12
Pollen Not available.
Air Quality Not available.
Flu Activity Not available.
METAR ZGGG 011000Z 30004MPS 250V360 9999 BKN050 33/22 Q0997 NOSIG

More Conditions Fewer Conditions

10-Day Weather Forecast

Almanac

Astronomy

Aug. 01, 2014 Rise Set
Actual Time 5:57 AM CST 7:09 PM CST
Civil Twilight 5:33 AM CST 7:33 PM CST
Nautical Twilight 5:04 AM CST 8:01 PM CST
Astronomical Twilight 4:35 AM CST 8:31 PM CST
Moon 10:10 AM CST 10:16 PM CST
Length of Visible Light 13h 59m
Length of Day
13h 11m
Tomorrow will be 1m 0s shorter.
Waxing Crescent, 25% of the Moon is Illuminated
Today
Waxing Crescent
Aug 3
First Quarter
Aug 10
Full
Aug 17
Last Quarter
Aug 25
New

Yesterday's Extremes

Country Highs Country Lows

Community

WunderPhotos

Upload Photos

1,739,534 photos uploaded!

Nearby

Snow Depth

Not available.

Earthquake Activity

City Distance Mag. Time & Date
No recent earthquake activity has been reported nearby.
Minimum magnitude displayed is 2.5.

Coastal Water Temperatures

Place Temperature
No Stations Reporting

Nearby Weather Stations

There are no personal weather stations in this area.